Terminal Aerodrome Forecast
Issued by NWS

Home | Current Version | Previous Version | Text Only | Print | Product List | Glossary On
Versions: 1 2 3 4 5 6 7 8 9 10 11 12
452
FTUS45 KABQ 250526
TAFROW
TAF
KROW 250526Z 2506/2606 02006KT P6SM SKC
     FM251500 16010KT P6SM SKC
     FM252300 17014KT P6SM SKC
     FM260200 20010KT P6SM SKC=

USA.gov is the U.S. government's official web portal to all federal, state and local government web resources and services.